createdAt,value
2018-12-31T14:09:10.091Z,1009.20
2018-12-31T14:10:09.378Z,1009.17
2018-12-31T14:12:02.264Z,1009.24
2018-12-31T14:13:02.237Z,1009.24
2018-12-31T14:17:57.013Z,1009.20
2018-12-31T14:18:58.499Z,1009.21
2018-12-31T14:20:50.855Z,1009.15
2018-12-31T14:21:50.828Z,1009.14
2018-12-31T14:23:44.549Z,1009.16
2018-12-31T14:24:43.706Z,1009.18
2018-12-31T14:25:43.974Z,1009.17
2018-12-31T14:26:43.662Z,1009.19
2018-12-31T14:27:43.748Z,1009.22
2018-12-31T14:28:43.642Z,1009.22
2018-12-31T14:29:43.627Z,1009.19
2018-12-31T14:30:43.949Z,1009.21
2018-12-31T14:31:43.809Z,1009.20
2018-12-31T14:32:43.724Z,1009.19
2018-12-31T14:33:43.700Z,1009.19
2018-12-31T14:34:43.778Z,1009.21
2018-12-31T14:35:45.965Z,1009.25
2018-12-31T14:36:43.589Z,1009.23
2018-12-31T14:37:43.548Z,1009.25
2018-12-31T14:38:43.540Z,1009.22
2018-12-31T14:39:43.524Z,1009.24
2018-12-31T14:40:43.520Z,1009.23
2018-12-31T14:41:43.524Z,1009.24
2018-12-31T14:42:43.856Z,1009.26
2018-12-31T14:43:43.483Z,1009.27
2018-12-31T14:44:43.493Z,1009.27
2018-12-31T14:45:43.693Z,1009.27
2018-12-31T14:46:43.891Z,1009.32
2018-12-31T14:47:43.449Z,1009.31
2018-12-31T14:48:43.436Z,1009.37
2018-12-31T14:49:43.426Z,1009.41
2018-12-31T14:50:43.413Z,1009.38
2018-12-31T14:51:43.412Z,1009.39
2018-12-31T14:52:43.838Z,1009.39
2018-12-31T14:53:43.383Z,1009.37
2018-12-31T14:54:43.370Z,1009.40
2018-12-31T14:55:43.362Z,1009.39
2018-12-31T14:56:43.353Z,1009.40
2018-12-31T14:57:43.344Z,1009.42
2018-12-31T14:58:43.410Z,1009.41
2018-12-31T14:59:43.577Z,1009.38
2018-12-31T15:00:43.362Z,1009.38
2018-12-31T15:01:43.339Z,1009.39
2018-12-31T15:02:43.326Z,1009.35
2018-12-31T15:03:43.556Z,1009.41
2018-12-31T15:04:43.749Z,1009.38
2018-12-31T15:05:43.257Z,1009.42
2018-12-31T15:06:43.255Z,1009.42
2018-12-31T15:07:43.271Z,1009.44
2018-12-31T15:08:43.326Z,1009.44
2018-12-31T15:09:43.367Z,1009.47
2018-12-31T15:10:43.265Z,1009.47
2018-12-31T15:11:43.202Z,1009.43
2018-12-31T15:12:43.189Z,1009.41
2018-12-31T15:13:43.176Z,1009.42
2018-12-31T15:14:43.219Z,1009.42
2018-12-31T15:15:43.166Z,1009.41
2018-12-31T15:16:43.236Z,1009.44
2018-12-31T15:17:43.163Z,1009.42
2018-12-31T15:18:43.128Z,1009.42
2018-12-31T15:19:43.126Z,1009.43
2018-12-31T15:20:43.433Z,1009.38
2018-12-31T15:21:43.094Z,1009.40
2018-12-31T15:22:43.193Z,1009.34
2018-12-31T15:23:43.078Z,1009.30
2018-12-31T15:24:43.072Z,1009.34
2018-12-31T15:25:43.057Z,1009.35
2018-12-31T15:26:43.048Z,1009.34
2018-12-31T15:27:43.034Z,1009.38
2018-12-31T15:28:43.022Z,1009.37
2018-12-31T15:29:43.014Z,1009.40
2018-12-31T15:30:43.003Z,1009.40
2018-12-31T15:31:43.277Z,1009.41
2018-12-31T15:32:43.048Z,1009.45
2018-12-31T15:33:43.036Z,1009.41
2018-12-31T15:34:42.969Z,1009.41
2018-12-31T15:35:42.959Z,1009.41
2018-12-31T15:36:42.944Z,1009.42
2018-12-31T15:37:42.929Z,1009.46
2018-12-31T15:38:42.928Z,1009.41
2018-12-31T15:39:42.927Z,1009.44
2018-12-31T15:40:42.905Z,1009.40
2018-12-31T15:41:42.891Z,1009.44
2018-12-31T15:42:42.881Z,1009.43
2018-12-31T15:43:42.874Z,1009.44
2018-12-31T15:44:42.866Z,1009.43
2018-12-31T15:45:42.851Z,1009.45
2018-12-31T15:46:42.843Z,1009.41
2018-12-31T15:47:43.978Z,1009.46
2018-12-31T15:48:42.821Z,1009.47
2018-12-31T15:49:42.830Z,1009.42
2018-12-31T15:50:42.806Z,1009.46
2018-12-31T15:51:42.790Z,1009.43
2018-12-31T15:52:42.786Z,1009.49
2018-12-31T15:53:43.217Z,1009.49
2018-12-31T15:54:42.765Z,1009.49
2018-12-31T15:55:42.756Z,1009.50
2018-12-31T15:56:42.740Z,1009.49
2018-12-31T15:57:42.727Z,1009.46
2018-12-31T15:58:42.722Z,1009.48
2018-12-31T15:59:42.709Z,1009.49
2018-12-31T16:00:42.701Z,1009.52
2018-12-31T16:01:42.692Z,1009.49
2018-12-31T16:02:42.678Z,1009.50
2018-12-31T16:03:42.671Z,1009.55
2018-12-31T16:04:42.676Z,1009.51
2018-12-31T16:05:42.645Z,1009.52
2018-12-31T16:06:42.637Z,1009.51
2018-12-31T16:07:45.921Z,1009.52
2018-12-31T16:08:42.627Z,1009.56
2018-12-31T16:09:42.609Z,1009.53
2018-12-31T16:10:42.596Z,1009.59
2018-12-31T16:11:42.587Z,1009.54
2018-12-31T16:12:42.883Z,1009.58
2018-12-31T16:13:42.574Z,1009.53
2018-12-31T16:14:42.552Z,1009.51
2018-12-31T16:15:42.551Z,1009.53
2018-12-31T16:16:42.532Z,1009.55
2018-12-31T16:17:42.525Z,1009.57
2018-12-31T16:18:42.514Z,1009.55
2018-12-31T16:19:42.526Z,1009.52
2018-12-31T16:20:42.503Z,1009.52
2018-12-31T16:21:42.489Z,1009.50
2018-12-31T16:22:42.481Z,1009.54
2018-12-31T16:23:42.463Z,1009.49
2018-12-31T16:24:42.448Z,1009.53
2018-12-31T16:25:42.437Z,1009.50
2018-12-31T16:26:42.441Z,1009.45
2018-12-31T16:27:42.445Z,1009.46
2018-12-31T16:28:42.408Z,1009.46
2018-12-31T16:29:42.404Z,1009.45
2018-12-31T16:30:42.404Z,1009.44
2018-12-31T16:31:42.402Z,1009.46
2018-12-31T16:32:42.378Z,1009.45
2018-12-31T16:33:42.369Z,1009.46
2018-12-31T16:34:42.357Z,1009.44
2018-12-31T16:35:42.349Z,1009.44
2018-12-31T16:36:42.350Z,1009.48
2018-12-31T16:37:42.329Z,1009.46
2018-12-31T16:38:42.338Z,1009.46
2018-12-31T16:39:42.305Z,1009.52
2018-12-31T16:40:42.292Z,1009.47
2018-12-31T16:41:42.340Z,1009.51
2018-12-31T16:42:42.299Z,1009.53
2018-12-31T16:43:42.268Z,1009.56
2018-12-31T16:44:42.270Z,1009.55
2018-12-31T16:45:42.253Z,1009.58
2018-12-31T16:46:42.235Z,1009.56
2018-12-31T16:47:42.223Z,1009.56
2018-12-31T16:48:42.212Z,1009.55
2018-12-31T16:49:42.200Z,1009.54
2018-12-31T16:50:42.193Z,1009.56
2018-12-31T16:51:42.180Z,1009.56
2018-12-31T16:52:42.186Z,1009.55
2018-12-31T16:53:42.159Z,1009.54
2018-12-31T16:54:42.153Z,1009.54
2018-12-31T16:55:42.140Z,1009.55
2018-12-31T16:56:42.152Z,1009.51
2018-12-31T16:57:42.122Z,1009.51
2018-12-31T16:58:42.108Z,1009.53
2018-12-31T16:59:42.097Z,1009.55
2018-12-31T17:00:42.087Z,1009.56
2018-12-31T17:01:42.080Z,1009.56
2018-12-31T17:02:42.073Z,1009.53
2018-12-31T17:03:42.059Z,1009.56
2018-12-31T17:04:42.046Z,1009.59
2018-12-31T17:05:42.043Z,1009.55
2018-12-31T17:06:42.041Z,1009.54
2018-12-31T17:07:42.017Z,1009.54
2018-12-31T17:08:42.001Z,1009.52
2018-12-31T17:09:41.997Z,1009.52
2018-12-31T17:10:41.982Z,1009.52
2018-12-31T17:11:41.977Z,1009.53
2018-12-31T17:12:42.507Z,1009.50
2018-12-31T17:13:41.963Z,1009.51
2018-12-31T17:14:41.948Z,1009.49
2018-12-31T17:15:41.940Z,1009.48
2018-12-31T17:16:41.941Z,1009.49
2018-12-31T17:17:41.916Z,1009.50
2018-12-31T17:18:41.907Z,1009.47
2018-12-31T17:19:41.895Z,1009.47
2018-12-31T17:20:41.886Z,1009.47
2018-12-31T17:21:41.877Z,1009.45
2018-12-31T17:22:41.865Z,1009.46
2018-12-31T17:23:41.860Z,1009.47
2018-12-31T17:24:41.843Z,1009.51
2018-12-31T17:25:41.835Z,1009.46
2018-12-31T17:26:41.824Z,1009.49
2018-12-31T17:27:41.825Z,1009.47
2018-12-31T17:28:41.814Z,1009.48
2018-12-31T17:29:41.792Z,1009.47
2018-12-31T17:30:41.800Z,1009.46
2018-12-31T17:31:41.793Z,1009.46
2018-12-31T17:32:41.765Z,1009.45
2018-12-31T17:33:41.752Z,1009.44
2018-12-31T17:34:41.742Z,1009.46
2018-12-31T17:35:41.733Z,1009.43
2018-12-31T17:36:41.723Z,1009.47
2018-12-31T17:37:41.776Z,1009.41
2018-12-31T17:38:41.709Z,1009.46
2018-12-31T17:39:41.693Z,1009.49
2018-12-31T17:40:41.677Z,1009.46
2018-12-31T17:41:41.673Z,1009.45
2018-12-31T17:42:41.661Z,1009.48
2018-12-31T17:43:41.649Z,1009.47
2018-12-31T17:44:41.647Z,1009.47
2018-12-31T17:45:41.635Z,1009.51
2018-12-31T17:46:41.621Z,1009.51
2018-12-31T17:47:41.610Z,1009.50
2018-12-31T17:48:41.602Z,1009.47
2018-12-31T17:49:41.595Z,1009.52
2018-12-31T17:50:41.598Z,1009.49
2018-12-31T17:51:41.572Z,1009.50
2018-12-31T17:52:41.559Z,1009.53
2018-12-31T17:53:41.547Z,1009.49
2018-12-31T17:54:41.542Z,1009.50
2018-12-31T17:55:41.524Z,1009.53
2018-12-31T17:56:41.529Z,1009.53
2018-12-31T17:57:41.511Z,1009.53
2018-12-31T17:58:41.503Z,1009.56
2018-12-31T17:59:41.488Z,1009.57
2018-12-31T18:00:41.487Z,1009.57
2018-12-31T18:01:41.462Z,1009.56
2018-12-31T18:02:41.479Z,1009.55
2018-12-31T18:03:41.447Z,1009.59
2018-12-31T18:04:41.448Z,1009.60
2018-12-31T18:05:41.429Z,1009.62
2018-12-31T18:06:41.419Z,1009.60
2018-12-31T18:07:41.411Z,1009.57
2018-12-31T18:08:41.402Z,1009.60
2018-12-31T18:09:41.390Z,1009.61
2018-12-31T18:10:41.388Z,1009.59
2018-12-31T18:11:41.371Z,1009.61
2018-12-31T18:12:41.361Z,1009.65
2018-12-31T18:13:41.350Z,1009.65
2018-12-31T18:14:41.334Z,1009.67
2018-12-31T18:15:41.327Z,1009.69
2018-12-31T18:16:41.321Z,1009.71
2018-12-31T18:17:41.311Z,1009.72
2018-12-31T18:18:41.303Z,1009.76
2018-12-31T18:19:41.289Z,1009.76
2018-12-31T18:20:41.278Z,1009.76
2018-12-31T18:21:41.267Z,1009.78
2018-12-31T18:22:41.254Z,1009.80
2018-12-31T18:23:41.249Z,1009.84
2018-12-31T18:24:41.240Z,1009.82
2018-12-31T18:25:41.352Z,1009.81
2018-12-31T18:26:41.214Z,1009.82
2018-12-31T18:27:41.206Z,1009.86
2018-12-31T18:28:41.206Z,1009.87
2018-12-31T18:29:41.198Z,1009.86
2018-12-31T18:30:41.179Z,1009.87
2018-12-31T18:31:41.165Z,1009.91
2018-12-31T18:32:41.173Z,1009.87
2018-12-31T18:33:41.144Z,1009.91
2018-12-31T18:34:41.151Z,1009.92
2018-12-31T18:35:41.125Z,1009.94
2018-12-31T18:36:41.116Z,1009.90
2018-12-31T18:37:41.842Z,1009.88
2018-12-31T18:38:41.093Z,1009.92
2018-12-31T18:39:41.083Z,1009.90
2018-12-31T18:40:41.076Z,1009.92
2018-12-31T18:41:41.070Z,1009.90
2018-12-31T18:42:41.055Z,1009.87
2018-12-31T18:43:41.043Z,1009.92
2018-12-31T18:44:41.038Z,1009.88
2018-12-31T18:45:41.024Z,1009.90
2018-12-31T18:46:41.016Z,1009.89
2018-12-31T18:47:41.004Z,1009.90
2018-12-31T18:48:40.993Z,1009.87
2018-12-31T18:49:40.977Z,1009.84
2018-12-31T18:50:40.984Z,1009.84
2018-12-31T18:51:40.959Z,1009.88
2018-12-31T18:52:40.956Z,1009.83
2018-12-31T18:53:40.942Z,1009.81
2018-12-31T18:54:40.936Z,1009.85
2018-12-31T18:55:40.922Z,1009.87
2018-12-31T18:56:40.913Z,1009.91
2018-12-31T18:57:40.907Z,1009.86
2018-12-31T18:58:40.895Z,1009.87
2018-12-31T18:59:40.891Z,1009.86
2018-12-31T19:00:40.875Z,1009.84
2018-12-31T19:01:40.859Z,1009.85
2018-12-31T19:02:40.848Z,1009.89
2018-12-31T19:03:40.843Z,1009.85
2018-12-31T19:04:40.832Z,1009.83
2018-12-31T19:05:40.823Z,1009.91
2018-12-31T19:06:40.816Z,1009.89
2018-12-31T19:07:40.812Z,1009.88
2018-12-31T19:08:40.794Z,1009.89
2018-12-31T19:09:40.800Z,1009.89
2018-12-31T19:10:40.771Z,1009.88
2018-12-31T19:11:40.767Z,1009.92
2018-12-31T19:12:40.759Z,1009.89
2018-12-31T19:13:40.761Z,1009.91
2018-12-31T19:14:40.733Z,1009.96
2018-12-31T19:15:40.732Z,1009.92
2018-12-31T19:16:40.709Z,1009.91
2018-12-31T19:17:40.699Z,1009.92
2018-12-31T19:18:40.705Z,1009.91
2018-12-31T19:19:40.689Z,1009.91
2018-12-31T19:20:40.682Z,1009.92
2018-12-31T19:21:40.670Z,1009.88
2018-12-31T19:22:40.650Z,1009.88
2018-12-31T19:23:40.639Z,1009.89
2018-12-31T19:24:40.624Z,1009.88
2018-12-31T19:25:40.620Z,1009.91
2018-12-31T19:26:40.606Z,1009.90
2018-12-31T19:27:40.603Z,1009.88
2018-12-31T19:28:40.584Z,1009.89
2018-12-31T19:29:40.575Z,1009.86
2018-12-31T19:30:40.564Z,1009.87
2018-12-31T19:31:40.557Z,1009.88
2018-12-31T19:32:40.557Z,1009.90
2018-12-31T19:33:40.540Z,1009.82
2018-12-31T19:34:40.527Z,1009.81
2018-12-31T19:35:40.526Z,1009.84
2018-12-31T19:36:40.501Z,1009.83
2018-12-31T19:37:40.497Z,1009.85
2018-12-31T19:38:40.492Z,1009.85
2018-12-31T19:39:40.477Z,1009.86
2018-12-31T19:40:40.466Z,1009.85
2018-12-31T19:41:40.458Z,1009.83
2018-12-31T19:42:40.451Z,1009.85
2018-12-31T19:43:40.435Z,1009.76
2018-12-31T19:44:40.434Z,1009.79
2018-12-31T19:45:40.412Z,1009.76
2018-12-31T19:46:40.402Z,1009.73
2018-12-31T19:47:40.396Z,1009.71
2018-12-31T19:48:40.390Z,1009.71
2018-12-31T19:49:40.374Z,1009.69
2018-12-31T19:50:40.381Z,1009.69
2018-12-31T19:51:40.354Z,1009.71
2018-12-31T19:52:40.340Z,1009.70
2018-12-31T19:53:40.333Z,1009.71
2018-12-31T19:54:40.331Z,1009.68
2018-12-31T19:55:40.317Z,1009.73
2018-12-31T19:56:40.306Z,1009.71
2018-12-31T19:57:40.286Z,1009.67
2018-12-31T19:58:40.276Z,1009.65
2018-12-31T19:59:40.284Z,1009.69
2018-12-31T20:00:40.257Z,1009.64
2018-12-31T20:01:40.252Z,1009.65
2018-12-31T20:02:40.242Z,1009.63
2018-12-31T20:03:40.230Z,1009.65
2018-12-31T20:04:40.222Z,1009.65
2018-12-31T20:05:40.217Z,1009.61
2018-12-31T20:06:40.219Z,1009.63
2018-12-31T20:07:40.192Z,1009.63
2018-12-31T20:08:40.177Z,1009.61
2018-12-31T20:09:40.183Z,1009.59
2018-12-31T20:10:40.159Z,1009.59
2018-12-31T20:11:40.148Z,1009.59
2018-12-31T20:12:40.135Z,1009.63
2018-12-31T20:13:40.126Z,1009.61
2018-12-31T20:14:40.118Z,1009.59
2018-12-31T20:15:40.109Z,1009.59
2018-12-31T20:16:40.099Z,1009.57
2018-12-31T20:17:40.095Z,1009.58
2018-12-31T20:18:40.079Z,1009.55
2018-12-31T20:19:40.071Z,1009.57
2018-12-31T20:20:40.064Z,1009.58
2018-12-31T20:21:40.052Z,1009.55
2018-12-31T20:22:40.038Z,1009.57
2018-12-31T20:23:40.030Z,1009.55
2018-12-31T20:24:40.021Z,1009.58
2018-12-31T20:25:40.013Z,1009.56
2018-12-31T20:26:39.996Z,1009.54
2018-12-31T20:27:39.993Z,1009.52
2018-12-31T20:28:39.998Z,1009.52
2018-12-31T20:29:39.965Z,1009.53
2018-12-31T20:30:39.955Z,1009.51
2018-12-31T20:31:39.949Z,1009.51
2018-12-31T20:32:39.937Z,1009.51
2018-12-31T20:33:39.922Z,1009.54
2018-12-31T20:34:39.913Z,1009.53
2018-12-31T20:35:39.905Z,1009.52
2018-12-31T20:36:39.893Z,1009.55
2018-12-31T20:37:39.894Z,1009.57
2018-12-31T20:38:39.888Z,1009.55
2018-12-31T20:39:39.882Z,1009.54
2018-12-31T20:40:39.857Z,1009.54
2018-12-31T20:41:39.844Z,1009.53
2018-12-31T20:42:39.838Z,1009.54
2018-12-31T20:43:39.825Z,1009.53
2018-12-31T20:44:39.814Z,1009.58
2018-12-31T20:45:39.800Z,1009.51
2018-12-31T20:46:39.803Z,1009.48
2018-12-31T20:47:39.800Z,1009.48
2018-12-31T20:48:39.788Z,1009.48
2018-12-31T20:49:39.759Z,1009.44
2018-12-31T20:50:39.752Z,1009.41
2018-12-31T20:51:39.749Z,1009.38
2018-12-31T20:52:39.736Z,1009.40
2018-12-31T20:53:39.726Z,1009.43
2018-12-31T20:54:39.717Z,1009.43
2018-12-31T20:55:39.729Z,1009.43
2018-12-31T20:56:39.690Z,1009.46
2018-12-31T20:57:39.682Z,1009.42
2018-12-31T20:58:39.682Z,1009.41
2018-12-31T20:59:39.663Z,1009.43
2018-12-31T21:00:39.651Z,1009.42
2018-12-31T21:01:39.641Z,1009.43
2018-12-31T21:02:39.635Z,1009.52
2018-12-31T21:03:39.621Z,1009.48
2018-12-31T21:04:39.626Z,1009.47
2018-12-31T21:05:39.597Z,1009.46
2018-12-31T21:06:39.588Z,1009.48
2018-12-31T21:07:39.580Z,1009.47
2018-12-31T21:08:39.598Z,1009.45
2018-12-31T21:09:39.558Z,1009.46
2018-12-31T21:10:39.553Z,1009.47
2018-12-31T21:11:39.541Z,1009.45
2018-12-31T21:12:40.364Z,1009.46
2018-12-31T21:13:39.520Z,1009.46
2018-12-31T21:14:39.514Z,1009.46
2018-12-31T21:15:39.497Z,1009.44
2018-12-31T21:16:39.508Z,1009.40
2018-12-31T21:17:39.494Z,1009.43
2018-12-31T21:18:39.467Z,1009.41
2018-12-31T21:19:39.472Z,1009.41
2018-12-31T21:20:39.448Z,1009.45
2018-12-31T21:21:39.504Z,1009.42
2018-12-31T21:22:39.430Z,1009.36
2018-12-31T21:23:41.184Z,1009.33
2018-12-31T21:24:39.410Z,1009.33
2018-12-31T21:25:39.402Z,1009.29
2018-12-31T21:26:39.388Z,1009.32
2018-12-31T21:27:39.383Z,1009.28
2018-12-31T21:28:39.369Z,1009.31
2018-12-31T21:29:39.357Z,1009.30
2018-12-31T21:30:39.347Z,1009.26
2018-12-31T21:31:39.336Z,1009.26
2018-12-31T21:32:39.327Z,1009.26
2018-12-31T21:33:39.327Z,1009.26
2018-12-31T21:34:41.232Z,1009.29
2018-12-31T21:35:39.298Z,1009.28
2018-12-31T21:36:39.297Z,1009.29
2018-12-31T21:37:39.275Z,1009.30
2018-12-31T21:38:39.266Z,1009.28
2018-12-31T21:39:39.256Z,1009.26
2018-12-31T21:40:39.268Z,1009.27
2018-12-31T21:41:39.236Z,1009.29
2018-12-31T21:42:39.227Z,1009.36
2018-12-31T21:43:39.228Z,1009.35
2018-12-31T21:44:39.207Z,1009.36
2018-12-31T21:45:39.206Z,1009.34
2018-12-31T21:46:39.191Z,1009.38
2018-12-31T21:47:39.174Z,1009.44
2018-12-31T21:48:39.166Z,1009.47
2018-12-31T21:49:39.152Z,1009.48
2018-12-31T21:50:39.150Z,1009.50
2018-12-31T21:51:39.185Z,1009.52
2018-12-31T21:52:39.128Z,1009.53
2018-12-31T21:53:39.111Z,1009.50
2018-12-31T21:54:39.108Z,1009.53
2018-12-31T21:55:39.093Z,1009.51
2018-12-31T21:56:39.091Z,1009.51
2018-12-31T21:57:39.074Z,1009.51
2018-12-31T21:58:39.071Z,1009.50
2018-12-31T21:59:39.055Z,1009.49
2018-12-31T22:00:39.042Z,1009.54
2018-12-31T22:01:39.035Z,1009.53
2018-12-31T22:02:39.022Z,1009.50
2018-12-31T22:03:39.012Z,1009.50
2018-12-31T22:04:39.019Z,1009.46
2018-12-31T22:05:38.990Z,1009.45
2018-12-31T22:06:38.984Z,1009.43
2018-12-31T22:07:38.972Z,1009.44
2018-12-31T22:08:38.962Z,1009.43
2018-12-31T22:09:38.950Z,1009.38
2018-12-31T22:10:38.938Z,1009.41
2018-12-31T22:11:38.931Z,1009.41
2018-12-31T22:12:38.919Z,1009.39
2018-12-31T22:13:38.920Z,1009.38
2018-12-31T22:14:38.899Z,1009.37
2018-12-31T22:15:38.894Z,1009.38
2018-12-31T22:16:38.882Z,1009.41
2018-12-31T22:17:38.871Z,1009.36
2018-12-31T22:18:38.863Z,1009.33
2018-12-31T22:19:38.848Z,1009.31
2018-12-31T22:20:38.846Z,1009.34
2018-12-31T22:21:38.828Z,1009.32
2018-12-31T22:22:38.839Z,1009.32
2018-12-31T22:23:38.808Z,1009.35
2018-12-31T22:24:38.817Z,1009.35
2018-12-31T22:25:38.796Z,1009.38
2018-12-31T22:26:38.780Z,1009.34
2018-12-31T22:27:38.769Z,1009.34
2018-12-31T22:28:38.762Z,1009.35
2018-12-31T22:29:38.745Z,1009.38
2018-12-31T22:30:38.735Z,1009.36
2018-12-31T22:31:38.726Z,1009.36
2018-12-31T22:32:38.718Z,1009.31
2018-12-31T22:33:38.708Z,1009.32
2018-12-31T22:34:38.699Z,1009.35
2018-12-31T22:35:38.686Z,1009.30
2018-12-31T22:36:38.674Z,1009.33
2018-12-31T22:37:38.664Z,1009.33
2018-12-31T22:38:38.658Z,1009.32
2018-12-31T22:39:38.643Z,1009.33
2018-12-31T22:40:38.637Z,1009.34
2018-12-31T22:41:38.627Z,1009.31
2018-12-31T22:42:38.612Z,1009.34
2018-12-31T22:43:38.600Z,1009.30
2018-12-31T22:44:38.616Z,1009.29
2018-12-31T22:45:38.585Z,1009.32
2018-12-31T22:46:38.573Z,1009.31
2018-12-31T22:47:38.566Z,1009.30
2018-12-31T22:48:38.554Z,1009.31
2018-12-31T22:49:38.551Z,1009.32
2018-12-31T22:50:38.529Z,1009.30
2018-12-31T22:51:38.518Z,1009.32
2018-12-31T22:52:38.509Z,1009.28
2018-12-31T22:53:38.507Z,1009.28
2018-12-31T22:54:38.493Z,1009.32
2018-12-31T22:55:38.614Z,1009.28
2018-12-31T22:56:38.473Z,1009.29
2018-12-31T22:57:38.463Z,1009.26
2018-12-31T22:58:38.452Z,1009.22
2018-12-31T22:59:40.019Z,1009.24
2018-12-31T23:00:38.432Z,1009.17
2018-12-31T23:01:38.424Z,1009.16
2018-12-31T23:02:38.413Z,1009.15
2018-12-31T23:03:38.404Z,1009.12
2018-12-31T23:04:38.391Z,1009.13
2018-12-31T23:05:39.843Z,1009.12
2018-12-31T23:06:38.370Z,1009.13
2018-12-31T23:07:38.353Z,1009.11
2018-12-31T23:08:38.357Z,1009.15
2018-12-31T23:09:41.385Z,1009.13
2018-12-31T23:10:38.349Z,1009.12
2018-12-31T23:11:38.317Z,1009.20
2018-12-31T23:12:38.328Z,1009.20
2018-12-31T23:13:38.305Z,1009.23
2018-12-31T23:14:38.288Z,1009.18
2018-12-31T23:15:38.277Z,1009.24
2018-12-31T23:16:38.263Z,1009.17
2018-12-31T23:17:38.260Z,1009.21
2018-12-31T23:18:38.246Z,1009.18
2018-12-31T23:19:41.868Z,1009.19
2018-12-31T23:20:38.227Z,1009.19
2018-12-31T23:21:38.218Z,1009.13
2018-12-31T23:22:38.209Z,1009.17
2018-12-31T23:23:38.208Z,1009.11
2018-12-31T23:24:38.190Z,1009.11
2018-12-31T23:25:38.176Z,1009.12
2018-12-31T23:26:38.166Z,1009.13
2018-12-31T23:27:38.149Z,1009.12
2018-12-31T23:28:38.143Z,1009.12
2018-12-31T23:29:38.147Z,1009.12
2018-12-31T23:30:38.137Z,1009.10
2018-12-31T23:31:38.115Z,1009.09
2018-12-31T23:32:38.127Z,1009.06
2018-12-31T23:33:38.113Z,1009.06
2018-12-31T23:34:38.087Z,1009.07
2018-12-31T23:35:38.991Z,1009.11
2018-12-31T23:36:38.063Z,1009.03
2018-12-31T23:37:38.064Z,1009.05
2018-12-31T23:38:38.048Z,1009.05
2018-12-31T23:39:38.042Z,1009.03
2018-12-31T23:40:38.023Z,1009.07
2018-12-31T23:41:38.013Z,1009.06
2018-12-31T23:42:38.016Z,1009.01
2018-12-31T23:43:37.992Z,1009.04
2018-12-31T23:44:37.983Z,1009.03
2018-12-31T23:45:37.972Z,1009.00
2018-12-31T23:46:37.962Z,1008.94
2018-12-31T23:47:37.953Z,1008.98
2018-12-31T23:48:37.938Z,1008.97
2018-12-31T23:49:37.931Z,1008.97
2018-12-31T23:50:37.919Z,1009.00
2018-12-31T23:51:37.911Z,1008.95
2018-12-31T23:52:37.899Z,1008.95
2018-12-31T23:53:37.889Z,1008.93
2018-12-31T23:54:37.882Z,1008.96
2018-12-31T23:55:37.872Z,1008.93
2018-12-31T23:56:37.860Z,1008.94
2018-12-31T23:57:37.850Z,1008.98
2018-12-31T23:58:37.830Z,1008.96
2018-12-31T23:59:37.828Z,1008.95
